Time;durP1;ratioP1;P1;durP2;ratioP2;P2;SDS_P1;SDS_P2;PMS_P1;PMS_P2;Temp;Humidity;BMP_temperature;BMP_pressure;BME280_temperature;BME280_humidity;BME280_pressure;Samples;Min_cycle;Max_cycle;Signal;HPM_P1;HPM_P2
2021/03/11 00:00:10;;;;;;;6.47;2.90;;;8.80;53.50;;;;;;5016911;28;20050;-60
2021/03/11 00:02:41;;;;;;;8.35;2.22;;;8.80;53.20;;;;;;5050259;28;20053;-60
2021/03/11 00:05:13;;;;;;;5.85;2.63;;;8.80;53.20;;;;;;5033958;28;20088;-60
2021/03/11 00:07:41;;;;;;;11.68;3.50;;;8.80;53.50;;;;;;5026144;28;20245;-61
2021/03/11 00:10:11;;;;;;;7.40;2.88;;;8.80;54.10;;;;;;5033469;28;20323;-61
2021/03/11 00:12:39;;;;;;;7.85;4.07;;;8.70;54.50;;;;;;5030621;28;20087;-61
2021/03/11 00:15:09;;;;;;;12.38;3.85;;;8.70;54.10;;;;;;5032546;28;20052;-61
2021/03/11 00:17:36;;;;;;;7.80;3.35;;;8.70;55.60;;;;;;5033381;28;20057;-61
2021/03/11 00:20:07;;;;;;;10.52;3.75;;;8.70;57.90;;;;;;5032976;28;20053;-61
2021/03/11 00:22:39;;;;;;;9.27;3.20;;;8.50;58.90;;;;;;5034746;28;20394;-61
2021/03/11 00:25:08;;;;;;;6.72;3.38;;;8.40;58.70;;;;;;5039591;28;20217;-61
2021/03/11 00:27:35;;;;;;;10.40;3.70;;;8.30;59.80;;;;;;5037089;28;20045;-60
2021/03/11 00:30:08;;;;;;;10.77;4.47;;;8.20;62.10;;;;;;5035626;28;20044;-60
2021/03/11 00:32:36;;;;;;;8.98;3.95;;;8.10;63.40;;;;;;5036548;28;20049;-60
2021/03/11 00:35:07;;;;;;;7.78;3.67;;;8.00;65.40;;;;;;5028201;28;20110;-61
2021/03/11 00:37:34;;;;;;;9.60;4.18;;;7.80;65.80;;;;;;5031691;28;20109;-61
2021/03/11 00:40:01;;;;;;;10.43;4.18;;;7.80;66.70;;;;;;5031289;28;20057;-60
2021/03/11 00:42:29;;;;;;;11.20;4.93;;;7.70;68.10;;;;;;5031186;28;20061;-61
2021/03/11 00:44:57;;;;;;;9.05;4.38;;;7.60;67.80;;;;;;5031171;28;20050;-59
2021/03/11 00:47:25;;;;;;;10.73;4.68;;;7.50;69.90;;;;;;5034478;28;20041;-60
2021/03/11 00:49:52;;;;;;;10.40;4.45;;;7.30;71.20;;;;;;5029984;28;20065;-60
2021/03/11 00:52:19;;;;;;;11.82;3.80;;;7.30;70.30;;;;;;5013779;28;20049;-60
2021/03/11 00:54:46;;;;;;;11.48;4.10;;;7.30;70.20;;;;;;5048283;28;20060;-60
2021/03/11 00:57:13;;;;;;;13.30;5.07;;;7.30;69.80;;;;;;5039452;28;20053;-60
2021/03/11 00:59:41;;;;;;;8.73;3.85;;;7.40;68.40;;;;;;5040658;28;20336;-60
2021/03/11 01:02:08;;;;;;;9.98;3.95;;;7.30;68.70;;;;;;5040651;28;20049;-59
2021/03/11 01:04:36;;;;;;;13.23;5.05;;;7.30;68.90;;;;;;5037443;28;20049;-61
2021/03/11 01:07:05;;;;;;;13.32;4.38;;;7.30;70.20;;;;;;5038579;28;20049;-60
2021/03/11 01:09:32;;;;;;;12.35;4.00;;;7.20;70.10;;;;;;5036917;28;20349;-60
2021/03/11 01:12:04;;;;;;;11.13;4.25;;;7.30;69.60;;;;;;5034223;28;20073;-60
2021/03/11 01:14:31;;;;;;;;;;;7.20;69.10;;;;;;5042186;28;20049;-60
2021/03/11 01:16:58;;;;;;;10.50;3.95;;;7.20;68.90;;;;;;5035313;28;19917;-60
2021/03/11 01:19:25;;;;;;;7.90;3.33;;;7.20;68.70;;;;;;5031252;28;20072;-61
2021/03/11 01:21:53;;;;;;;9.85;3.40;;;7.30;69.10;;;;;;5032249;28;20068;-59
2021/03/11 01:24:19;;;;;;;9.23;3.30;;;7.20;68.60;;;;;;5034336;28;20063;-60
2021/03/11 01:26:47;;;;;;;9.15;4.10;;;7.20;69.20;;;;;;5032844;28;20067;-60
2021/03/11 01:29:15;;;;;;;10.63;3.90;;;7.20;69.40;;;;;;5019964;28;20349;-61
2021/03/11 01:31:42;;;;;;;10.98;5.07;;;7.20;68.90;;;;;;5025853;28;20050;-60
2021/03/11 01:34:09;;;;;;;9.32;4.35;;;7.20;69.70;;;;;;5018949;28;20061;-60
2021/03/11 01:36:36;;;;;;;12.45;4.90;;;7.30;69.60;;;;;;5019930;28;20105;-61
2021/03/11 01:39:06;;;;;;;11.40;4.63;;;7.20;70.20;;;;;;5012584;28;20344;-60
2021/03/11 01:41:33;;;;;;;7.75;3.38;;;7.30;71.00;;;;;;5013660;28;20344;-61
2021/03/11 01:43:59;;;;;;;12.18;4.78;;;7.20;71.30;;;;;;5010720;28;20068;-60
2021/03/11 01:46:28;;;;;;;8.48;4.45;;;7.20;71.80;;;;;;5015664;28;20392;-60
2021/03/11 01:48:55;;;;;;;10.35;4.53;;;7.20;72.20;;;;;;5010752;28;20113;-60
2021/03/11 01:51:23;;;;;;;9.75;4.30;;;7.20;72.60;;;;;;5014619;28;20274;-60
2021/03/11 01:53:51;;;;;;;8.88;3.47;;;7.20;72.60;;;;;;5012395;28;20394;-60
2021/03/11 01:56:20;;;;;;;11.50;4.65;;;7.20;72.90;;;;;;5015584;28;20281;-60
2021/03/11 01:58:48;;;;;;;9.95;3.67;;;7.10;74.10;;;;;;5012987;28;20284;-60
2021/03/11 02:01:15;;;;;;;12.27;4.22;;;7.10;74.40;;;;;;5011978;28;20765;-61
2021/03/11 02:03:42;;;;;;;11.50;3.97;;;7.10;74.30;;;;;;5014036;28;20058;-61
2021/03/11 02:06:09;;;;;;;11.73;4.38;;;7.10;75.00;;;;;;5014197;28;20085;-60
2021/03/11 02:08:36;;;;;;;8.45;3.50;;;7.10;75.10;;;;;;5014586;28;20357;-60
2021/03/11 02:11:03;;;;;;;11.18;3.38;;;7.00;74.70;;;;;;5005935;28;20054;-60
2021/03/11 02:13:43;;;;;;;8.32;3.53;;;7.10;74.30;;;;;;5017202;28;20224;-61
2021/03/11 02:16:15;;;;;;;10.65;4.03;;;7.10;75.10;;;;;;5010559;28;20169;-60
2021/03/11 02:18:47;;;;;;;11.00;4.35;;;7.10;74.80;;;;;;5013275;28;20069;-60
2021/03/11 02:21:19;;;;;;;10.68;3.35;;;7.10;75.60;;;;;;5014249;28;20340;-61
2021/03/11 02:24:14;;;;;;;8.32;3.95;;;7.10;76.70;;;;;;5015074;28;20364;-60
2021/03/11 02:26:58;;;;;;;8.93;3.30;;;7.10;76.40;;;;;;5013778;28;20524;-61
2021/03/11 02:29:28;;;;;;;8.48;3.58;;;7.00;77.50;;;;;;5017028;28;20344;-61
2021/03/11 02:31:57;;;;;;;15.70;3.53;;;7.00;79.40;;;;;;5013196;28;20081;-60
2021/03/11 02:34:27;;;;;;;9.70;3.65;;;7.00;79.50;;;;;;5003942;28;20312;-60
2021/03/11 02:36:57;;;;;;;17.07;3.87;;;6.90;79.80;;;;;;5003517;28;20244;-60
2021/03/11 02:39:26;;;;;;;9.18;3.35;;;6.90;80.00;;;;;;5011079;28;20284;-59
2021/03/11 02:41:55;;;;;;;7.65;3.28;;;6.90;79.40;;;;;;5025758;28;20448;-61
2021/03/11 02:44:27;;;;;;;7.13;3.05;;;6.90;80.40;;;;;;5034059;28;20049;-61
2021/03/11 02:46:55;;;;;;;9.70;3.83;;;6.80;81.50;;;;;;5035449;28;20060;-61
2021/03/11 02:49:23;;;;;;;9.15;3.72;;;6.90;81.00;;;;;;5034509;28;20087;-61
2021/03/11 02:51:57;;;;;;;8.93;3.88;;;6.90;81.40;;;;;;5033626;28;20088;-59
2021/03/11 02:54:24;;;;;;;8.98;3.45;;;6.90;81.90;;;;;;5032505;28;20045;-60
2021/03/11 02:56:52;;;;;;;8.70;3.63;;;6.80;83.00;;;;;;5034661;28;20041;-60
2021/03/11 02:59:20;;;;;;;10.68;3.80;;;6.80;81.90;;;;;;5031564;28;20375;-60
2021/03/11 03:01:49;;;;;;;6.88;3.10;;;6.80;82.70;;;;;;5033466;28;20057;-60
2021/03/11 03:04:16;;;;;;;7.85;2.85;;;6.80;82.60;;;;;;5025832;28;20930;-59
2021/03/11 03:06:44;;;;;;;7.85;3.67;;;6.70;83.20;;;;;;5028382;28;20053;-61
2021/03/11 03:09:12;;;;;;;8.35;3.22;;;6.70;82.90;;;;;;5027365;28;20519;-60
2021/03/11 03:11:39;;;;;;;6.25;2.90;;;6.80;84.20;;;;;;5029617;28;20074;-60
2021/03/11 03:14:07;;;;;;;8.38;3.90;;;6.80;82.90;;;;;;5028713;28;20049;-60
2021/03/11 03:16:36;;;;;;;7.32;3.25;;;6.80;84.10;;;;;;5030852;28;20057;-60
2021/03/11 03:19:06;;;;;;;8.25;3.50;;;6.80;83.50;;;;;;5029771;28;20056;-61
2021/03/11 03:21:34;;;;;;;7.15;3.08;;;6.90;83.10;;;;;;5031140;28;20053;-61
2021/03/11 03:24:02;;;;;;;9.32;3.38;;;6.90;81.80;;;;;;5027851;28;20059;-61
2021/03/11 03:26:30;;;;;;;7.15;3.50;;;7.00;82.50;;;;;;5028113;28;20454;-60
2021/03/11 03:28:57;;;;;;;8.85;3.20;;;6.90;82.60;;;;;;5031636;28;20052;-59
2021/03/11 03:31:24;;;;;;;6.93;2.95;;;6.90;81.50;;;;;;5029556;28;20232;-60
2021/03/11 03:33:50;;;;;;;10.65;3.15;;;7.00;80.50;;;;;;5030060;28;20064;-60
2021/03/11 03:36:18;;;;;;;6.20;3.13;;;7.00;80.20;;;;;;5027872;28;20116;-60
2021/03/11 03:38:45;;;;;;;10.00;3.88;;;7.10;78.70;;;;;;5029696;28;20053;-61
2021/03/11 03:41:13;;;;;;;9.25;3.30;;;7.20;78.50;;;;;;5026464;28;20072;-61
2021/03/11 03:43:42;;;;;;;7.28;3.25;;;7.20;78.10;;;;;;5027278;28;20057;-60
2021/03/11 03:46:11;;;;;;;7.50;3.35;;;7.20;80.00;;;;;;5042944;28;20105;-60
2021/03/11 03:48:42;;;;;;;6.82;3.05;;;7.20;78.30;;;;;;5027355;28;20076;-61
2021/03/11 03:51:10;;;;;;;9.05;3.22;;;7.20;79.40;;;;;;5028773;28;20158;-61
2021/03/11 03:53:42;;;;;;;12.20;4.07;;;7.20;78.90;;;;;;5028569;28;20328;-60
2021/03/11 03:56:15;;;;;;;8.40;3.50;;;7.20;78.80;;;;;;5030314;28;20163;-60
2021/03/11 03:58:44;;;;;;;9.98;3.45;;;7.30;78.10;;;;;;5022493;28;20128;-60
2021/03/11 04:01:12;;;;;;;7.63;3.45;;;7.30;78.10;;;;;;5013503;28;20233;-61
2021/03/11 04:03:39;;;;;;;13.35;3.47;;;7.30;77.60;;;;;;5003070;28;20481;-61
2021/03/11 04:06:09;;;;;;;7.78;3.25;;;7.30;77.80;;;;;;5012370;28;20053;-59
2021/03/11 04:08:37;;;;;;;7.78;2.83;;;7.40;77.00;;;;;;5029992;28;20060;-60
2021/03/11 04:11:05;;;;;;;8.85;3.53;;;7.40;76.90;;;;;;5024540;28;20120;-60
2021/03/11 04:13:33;;;;;;;8.77;3.90;;;7.60;75.90;;;;;;5026191;28;20424;-61
2021/03/11 04:16:00;;;;;;;5.45;2.47;;;7.60;75.10;;;;;;5024592;28;20060;-60
2021/03/11 04:18:30;;;;;;;7.80;3.42;;;7.60;74.50;;;;;;5026375;28;20059;-61
2021/03/11 04:20:58;;;;;;;8.27;3.00;;;7.70;74.10;;;;;;5026405;28;20079;-60
2021/03/11 04:23:26;;;;;;;7.40;3.20;;;7.80;73.40;;;;;;5025124;28;20064;-60
2021/03/11 04:25:53;;;;;;;8.07;3.35;;;7.90;73.60;;;;;;5029017;28;20069;-62
2021/03/11 04:28:21;;;;;;;8.50;2.95;;;7.80;73.50;;;;;;5027595;28;20065;-60
2021/03/11 04:30:48;;;;;;;6.22;2.70;;;7.80;74.20;;;;;;5029898;28;20220;-60
2021/03/11 04:33:16;;;;;;;7.15;3.00;;;7.80;73.80;;;;;;5028043;28;20113;-60
2021/03/11 04:35:43;;;;;;;8.23;3.38;;;7.80;73.60;;;;;;5025470;28;20103;-60
2021/03/11 04:38:10;;;;;;;7.63;3.33;;;7.90;73.30;;;;;;5032297;28;20148;-60
2021/03/11 04:40:37;;;;;;;6.65;2.58;;;7.90;72.60;;;;;;5028615;28;20069;-61
2021/03/11 04:43:08;;;;;;;8.15;3.60;;;7.90;72.90;;;;;;5027359;28;20391;-60
2021/03/11 04:45:36;;;;;;;;;;;7.90;72.80;;;;;;5027212;28;20082;-60
2021/03/11 04:48:06;;;;;;;9.50;3.42;;;7.90;73.20;;;;;;5029419;28;19959;-59
2021/03/11 04:50:34;;;;;;;8.32;2.80;;;7.90;73.00;;;;;;5029842;28;20120;-60
2021/03/11 04:53:01;;;;;;;13.75;3.13;;;8.00;72.50;;;;;;5025769;28;20530;-61
2021/03/11 04:55:38;;;;;;;11.25;3.50;;;8.00;72.90;;;;;;5025207;28;20171;-60
2021/03/11 04:58:05;;;;;;;5.45;2.50;;;8.00;72.90;;;;;;5028919;28;20356;-60
2021/03/11 05:00:33;;;;;;;6.47;2.65;;;8.00;72.30;;;;;;5008720;28;20107;-61
2021/03/11 05:03:02;;;;;;;7.30;3.13;;;8.00;72.30;;;;;;5017092;28;20046;-60
2021/03/11 05:05:43;;;;;;;6.43;3.17;;;8.00;72.40;;;;;;5003223;28;20135;-60
2021/03/11 05:08:10;;;;;;;6.75;3.13;;;8.10;72.10;;;;;;5007377;28;20218;-60
2021/03/11 05:10:39;;;;;;;7.60;2.70;;;8.20;72.30;;;;;;5006057;28;20069;-60
2021/03/11 05:13:06;;;;;;;7.28;3.42;;;8.20;71.80;;;;;;5006794;28;20062;-61
2021/03/11 05:15:34;;;;;;;6.50;2.70;;;8.20;72.10;;;;;;5023737;28;20089;-60
2021/03/11 05:18:01;;;;;;;7.88;3.10;;;8.20;72.10;;;;;;5025435;28;20124;-61
2021/03/11 05:20:28;;;;;;;9.98;2.58;;;8.20;72.10;;;;;;5026341;28;20156;-61
2021/03/11 05:22:56;;;;;;;7.28;3.17;;;8.20;72.20;;;;;;5026174;28;20691;-59
2021/03/11 05:25:23;;;;;;;8.82;3.40;;;8.30;72.20;;;;;;5027423;28;20328;-59
2021/03/11 05:27:50;;;;;;;9.60;4.10;;;8.30;72.10;;;;;;5024594;28;20090;-61
2021/03/11 05:30:18;;;;;;;7.53;2.58;;;8.30;72.50;;;;;;5016482;28;20057;-61
2021/03/11 05:32:44;;;;;;;6.40;3.00;;;8.30;72.20;;;;;;5023686;28;20046;-60
2021/03/11 05:35:12;;;;;;;7.00;3.05;;;8.30;72.10;;;;;;5022855;28;20288;-60
2021/03/11 05:37:40;;;;;;;7.93;2.90;;;8.40;71.80;;;;;;5025669;28;20056;-60
2021/03/11 05:40:09;;;;;;;6.05;2.78;;;8.40;71.60;;;;;;5024732;28;20140;-61
2021/03/11 05:42:37;;;;;;;6.80;3.15;;;8.40;72.00;;;;;;5023888;28;20120;-60
2021/03/11 05:45:07;;;;;;;7.15;2.67;;;8.40;72.30;;;;;;5025863;28;20051;-60
2021/03/11 05:47:35;;;;;;;6.57;2.75;;;8.40;71.90;;;;;;5025247;28;20055;-60
2021/03/11 05:50:06;;;;;;;7.25;3.10;;;8.40;72.10;;;;;;5024391;28;20057;-61
2021/03/11 05:52:35;;;;;;;6.95;3.13;;;8.40;72.00;;;;;;5026426;28;20209;-61
2021/03/11 05:55:05;;;;;;;6.05;3.10;;;8.50;72.00;;;;;;5028522;28;20341;-59
2021/03/11 05:57:32;;;;;;;6.13;2.70;;;8.50;72.20;;;;;;5028317;28;20379;-61
2021/03/11 06:00:00;;;;;;;7.20;2.40;;;8.50;72.10;;;;;;5024826;28;20054;-61
2021/03/11 06:02:33;;;;;;;7.28;2.75;;;8.50;72.30;;;;;;5029787;28;20088;-60
2021/03/11 06:05:00;;;;;;;7.18;2.72;;;8.60;72.30;;;;;;5025423;28;20053;-60
2021/03/11 06:07:31;;;;;;;;;;;8.60;72.50;;;;;;5027159;28;20136;-60
2021/03/11 06:10:03;;;;;;;6.53;2.42;;;8.60;72.70;;;;;;5024620;28;19925;-60
2021/03/11 06:12:31;;;;;;;5.65;2.70;;;8.60;73.00;;;;;;5026619;28;20159;-61
2021/03/11 06:15:03;;;;;;;6.53;2.25;;;8.60;73.00;;;;;;5028138;28;20050;-61
2021/03/11 06:17:33;;;;;;;6.93;3.05;;;8.60;73.20;;;;;;5030240;28;20137;-60
2021/03/11 06:20:00;;;;;;;6.97;3.40;;;8.70;73.10;;;;;;5026817;28;20073;-60
2021/03/11 06:22:27;;;;;;;6.10;3.08;;;8.70;73.10;;;;;;5032145;28;20049;-59
2021/03/11 06:24:54;;;;;;;6.13;2.67;;;8.80;73.20;;;;;;5029075;28;20050;-60
2021/03/11 06:27:23;;;;;;;7.07;3.25;;;8.80;73.30;;;;;;5031047;28;20061;-61
2021/03/11 06:29:50;;;;;;;7.05;2.70;;;8.90;73.40;;;;;;5031020;28;20222;-61
2021/03/11 06:32:17;;;;;;;6.72;2.65;;;8.90;73.40;;;;;;5033202;28;20056;-60
2021/03/11 06:34:45;;;;;;;8.50;3.17;;;8.90;73.90;;;;;;5013586;28;20412;-60
2021/03/11 06:37:12;;;;;;;5.65;2.50;;;8.90;74.10;;;;;;5026354;28;20077;-60
2021/03/11 06:39:41;;;;;;;8.35;2.63;;;8.90;74.40;;;;;;5032216;28;20084;-60
2021/03/11 06:42:09;;;;;;;6.47;2.65;;;8.90;74.80;;;;;;5028770;28;20127;-60
2021/03/11 06:44:39;;;;;;;7.60;2.72;;;8.90;75.10;;;;;;5028877;28;20233;-60
2021/03/11 06:47:08;;;;;;;6.40;2.78;;;8.90;75.60;;;;;;5025139;28;20045;-60
2021/03/11 06:49:35;;;;;;;10.85;3.00;;;8.90;75.70;;;;;;5032227;28;20053;-60
2021/03/11 06:52:24;;;;;;;5.07;2.28;;;8.90;76.00;;;;;;5029995;28;20132;-60
2021/03/11 06:54:56;;;;;;;4.47;2.00;;;8.90;76.30;;;;;;5021279;28;21100;-60
2021/03/11 06:57:31;;;;;;;10.25;2.70;;;8.80;76.60;;;;;;5029904;28;20057;-60
2021/03/11 06:59:59;;;;;;;6.85;2.65;;;8.90;76.80;;;;;;5027380;28;20079;-60
2021/03/11 07:02:28;;;;;;;5.65;2.83;;;8.80;77.40;;;;;;5031019;28;20505;-59
2021/03/11 07:04:56;;;;;;;5.95;2.10;;;8.70;77.70;;;;;;5024142;28;20053;-60
2021/03/11 07:07:24;;;;;;;8.75;2.80;;;8.70;78.00;;;;;;5027468;28;20061;-60
2021/03/11 07:09:53;;;;;;;7.18;2.63;;;8.80;77.90;;;;;;5025556;28;20359;-59
2021/03/11 07:12:20;;;;;;;8.00;2.70;;;8.80;77.90;;;;;;5028787;28;20056;-61
2021/03/11 07:14:49;;;;;;;5.30;2.58;;;8.80;78.20;;;;;;5027133;28;20048;-59
2021/03/11 07:17:21;;;;;;;6.97;2.88;;;8.80;78.20;;;;;;5028132;28;21116;-59
2021/03/11 07:20:07;;;;;;;6.55;2.90;;;8.80;77.90;;;;;;5028141;28;20125;-61
2021/03/11 07:22:34;;;;;;;5.70;2.22;;;8.80;78.10;;;;;;5023306;28;20829;-60
2021/03/11 07:25:03;;;;;;;5.82;2.83;;;8.90;77.70;;;;;;5026473;28;20459;-59
2021/03/11 07:27:40;;;;;;;5.85;2.70;;;8.90;77.50;;;;;;5026136;28;20057;-60
2021/03/11 07:30:08;;;;;;;5.18;2.45;;;9.00;77.10;;;;;;5031691;28;20048;-59
2021/03/11 07:32:36;;;;;;;5.70;2.38;;;9.00;76.90;;;;;;5024017;28;20121;-60
2021/03/11 07:35:06;;;;;;;5.65;2.25;;;9.00;76.90;;;;;;5025892;28;20046;-59
2021/03/11 07:37:34;;;;;;;6.27;2.27;;;9.10;76.50;;;;;;5030569;28;20153;-59
2021/03/11 07:40:02;;;;;;;7.22;2.58;;;9.10;76.50;;;;;;5026439;28;20335;-61
2021/03/11 07:42:30;;;;;;;6.45;2.13;;;9.10;76.50;;;;;;5025913;28;20045;-60
2021/03/11 07:45:00;;;;;;;6.20;2.53;;;9.20;76.20;;;;;;5026672;28;20081;-60
2021/03/11 07:47:32;;;;;;;7.85;2.08;;;9.20;75.90;;;;;;5027964;28;20057;-60
2021/03/11 07:50:00;;;;;;;6.32;2.00;;;9.30;75.80;;;;;;5027183;28;20049;-60
2021/03/11 07:52:28;;;;;;;5.22;1.70;;;9.30;75.80;;;;;;5024603;28;20045;-61
2021/03/11 07:54:56;;;;;;;5.28;2.08;;;9.40;75.60;;;;;;5026877;28;20080;-60
2021/03/11 07:57:23;;;;;;;6.32;2.47;;;9.40;75.70;;;;;;5020170;28;20665;-61
2021/03/11 07:59:50;;;;;;;6.72;3.03;;;9.40;75.80;;;;;;5028835;28;20378;-60
2021/03/11 08:02:21;;;;;;;8.15;2.10;;;9.40;75.90;;;;;;5027048;28;20124;-59
2021/03/11 08:04:48;;;;;;;;;;;9.40;75.90;;;;;;5028021;28;20033;-60
2021/03/11 08:07:17;;;;;;;5.18;1.80;;;9.50;75.60;;;;;;5025848;28;20687;-59
2021/03/11 08:09:44;;;;;;;5.85;1.73;;;9.50;75.60;;;;;;5026084;28;20054;-60
2021/03/11 08:12:27;;;;;;;3.88;1.45;;;9.60;75.70;;;;;;5025051;28;20299;-60
2021/03/11 08:14:56;;;;;;;5.20;1.75;;;9.50;75.90;;;;;;5015184;28;20053;-60
2021/03/11 08:17:40;;;;;;;5.73;2.00;;;9.50;76.20;;;;;;5027612;28;20063;-60
2021/03/11 08:20:30;;;;;;;3.15;1.40;;;9.50;76.20;;;;;;5026276;28;20308;-61
2021/03/11 08:23:06;;;;;;;5.57;2.22;;;9.50;76.50;;;;;;5034117;28;20053;-61
2021/03/11 08:25:47;;;;;;;2.67;1.15;;;9.50;76.60;;;;;;5027419;28;20045;-60
2021/03/11 08:28:41;;;;;;;3.53;1.58;;;9.60;76.60;;;;;;5026953;28;20243;-60
2021/03/11 08:31:09;;;;;;;4.35;1.48;;;9.60;76.70;;;;;;5027025;28;20048;-60
2021/03/11 08:33:54;;;;;;;2.85;1.25;;;9.70;76.60;;;;;;5028211;28;20044;-59
2021/03/11 08:36:39;;;;;;;3.45;1.25;;;9.70;76.60;;;;;;5026664;28;20410;-59
2021/03/11 08:39:34;;;;;;;4.43;1.45;;;9.70;76.70;;;;;;5029276;28;20038;-60
2021/03/11 08:42:49;;;;;;;3.38;1.58;;;9.70;76.90;;;;;;5045168;28;20129;-60
2021/03/11 08:45:58;;;;;;;2.10;1.00;;;9.80;76.60;;;;;;5026708;28;20108;-61
2021/03/11 08:48:25;;;;;;;2.30;0.82;;;9.80;76.70;;;;;;5030138;28;20356;-60
2021/03/11 08:50:54;;;;;;;3.80;1.77;;;9.90;76.80;;;;;;5025347;28;20335;-59
2021/03/11 08:53:47;;;;;;;2.65;1.20;;;9.80;77.20;;;;;;5027196;28;20079;-60
2021/03/11 08:56:45;;;;;;;4.03;1.38;;;9.80;78.70;;;;;;5020704;28;20342;-60
2021/03/11 08:59:15;;;;;;;1.88;0.90;;;9.80;80.10;;;;;;5021141;28;20073;-60
2021/03/11 09:01:44;;;;;;;3.60;1.63;;;9.60;81.50;;;;;;5029726;28;20056;-61
2021/03/11 09:04:37;;;;;;;7.22;1.38;;;9.50;82.90;;;;;;5025640;28;20545;-61
2021/03/11 09:07:05;;;;;;;3.20;1.48;;;9.40;84.50;;;;;;5024991;28;20088;-59
2021/03/11 09:09:35;;;;;;;6.80;1.73;;;9.40;83.30;;;;;;5025581;28;20337;-59
2021/03/11 09:12:05;;;;;;;5.22;1.85;;;9.40;83.30;;;;;;5032643;28;20071;-60
2021/03/11 09:14:33;;;;;;;2.67;1.40;;;9.50;83.20;;;;;;5025261;28;20144;-61
2021/03/11 09:17:05;;;;;;;4.03;1.40;;;9.50;82.80;;;;;;5028148;28;20092;-60
2021/03/11 09:19:43;;;;;;;4.35;1.77;;;9.70;82.00;;;;;;5025779;28;20075;-59
2021/03/11 09:22:21;;;;;;;2.65;1.27;;;9.70;82.00;;;;;;5023929;28;20065;-61
2021/03/11 09:25:11;;;;;;;2.38;1.02;;;9.70;82.00;;;;;;5025820;28;20045;-60
2021/03/11 09:27:53;;;;;;;4.43;1.70;;;9.70;81.90;;;;;;5015778;28;20475;-61
2021/03/11 09:30:22;;;;;;;2.15;0.98;;;9.80;81.50;;;;;;5003443;28;20594;-61
2021/03/11 09:32:50;;;;;;;3.13;1.20;;;9.70;81.80;;;;;;5004574;28;20125;-60
2021/03/11 09:35:18;;;;;;;3.17;1.48;;;9.80;81.30;;;;;;5004397;28;20046;-60
2021/03/11 09:37:47;;;;;;;2.78;1.10;;;9.90;80.80;;;;;;5016771;28;20061;-60
2021/03/11 09:40:18;;;;;;;3.58;1.05;;;10.00;80.00;;;;;;5026197;28;20117;-60
2021/03/11 09:43:15;;;;;;;5.20;1.83;;;10.10;79.20;;;;;;5026008;28;20056;-60
2021/03/11 09:45:45;;;;;;;4.38;1.10;;;10.10;79.70;;;;;;4998150;28;20379;-60
2021/03/11 09:48:14;;;;;;;;;;;10.10;79.70;;;;;;5026836;28;20053;-60
2021/03/11 09:50:50;;;;;;;3.83;1.17;;;10.10;79.50;;;;;;5029986;28;20196;-61
2021/03/11 09:53:18;;;;;;;3.33;1.17;;;10.10;79.20;;;;;;5028978;28;20428;-61
2021/03/11 09:55:45;;;;;;;4.53;1.33;;;10.10;79.60;;;;;;5033367;28;20433;-60
2021/03/11 09:58:18;;;;;;;3.63;1.20;;;10.20;79.30;;;;;;5036434;28;20112;-61
2021/03/11 10:00:45;;;;;;;5.95;2.08;;;10.20;79.50;;;;;;5033393;28;20077;-60
2021/03/11 10:03:17;;;;;;;6.35;1.40;;;10.20;79.70;;;;;;5031358;28;20053;-60
2021/03/11 10:05:45;;;;;;;2.80;0.82;;;10.20;80.30;;;;;;5031279;28;20073;-59
2021/03/11 10:08:25;;;;;;;3.17;1.15;;;10.20;81.00;;;;;;5035803;28;20355;-61
2021/03/11 10:11:04;;;;;;;2.90;1.58;;;10.10;82.00;;;;;;5027893;28;20075;-60
2021/03/11 10:13:37;;;;;;;3.03;1.40;;;10.00;83.00;;;;;;5033563;28;20074;-60
2021/03/11 10:16:08;;;;;;;2.97;1.35;;;10.00;83.50;;;;;;5021020;28;20054;-60
2021/03/11 10:18:36;;;;;;;3.88;1.55;;;10.00;84.50;;;;;;5011795;28;20061;-60
2021/03/11 10:21:08;;;;;;;3.67;1.38;;;9.90;85.60;;;;;;5012251;28;20049;-61
2021/03/11 10:23:37;;;;;;;3.03;1.35;;;9.90;85.80;;;;;;5011194;28;20493;-59
2021/03/11 10:26:19;;;;;;;2.53;1.15;;;9.80;86.30;;;;;;5010679;28;20049;-61
2021/03/11 10:28:50;;;;;;;3.53;1.42;;;9.70;87.10;;;;;;5017091;28;20080;-60
2021/03/11 10:31:17;;;;;;;2.85;1.50;;;9.70;87.30;;;;;;5013020;28;20717;-60
2021/03/11 10:33:44;;;;;;;4.47;1.58;;;9.70;87.10;;;;;;5012525;28;20388;-60
2021/03/11 10:36:17;;;;;;;3.33;1.23;;;9.80;87.40;;;;;;5010186;28;20057;-60
2021/03/11 10:39:03;;;;;;;3.55;1.42;;;9.80;87.50;;;;;;5010480;28;20350;-60
2021/03/11 10:41:33;;;;;;;7.05;1.70;;;9.80;87.80;;;;;;5015946;28;20201;-60
2021/03/11 10:44:14;;;;;;;3.63;1.77;;;9.80;88.20;;;;;;5030583;28;20077;-60
2021/03/11 10:46:42;;;;;;;3.25;1.35;;;9.80;88.40;;;;;;5029133;28;20061;-60
2021/03/11 10:49:16;;;;;;;3.10;1.52;;;9.70;88.90;;;;;;5031152;28;20143;-60
2021/03/11 10:51:45;;;;;;;4.18;1.52;;;9.70;89.80;;;;;;5027027;28;20080;-60
2021/03/11 10:54:28;;;;;;;2.97;1.23;;;9.70;90.00;;;;;;5030566;28;20056;-60
2021/03/11 10:57:10;;;;;;;3.25;1.60;;;9.60;90.20;;;;;;5026908;28;20128;-60
2021/03/11 10:59:49;;;;;;;3.08;1.40;;;9.60;90.10;;;;;;5031301;28;20045;-60
2021/03/11 11:02:17;;;;;;;7.32;2.03;;;9.70;89.80;;;;;;5030710;28;20436;-60
2021/03/11 11:04:44;;;;;;;6.30;1.77;;;9.80;89.10;;;;;;5029556;28;20072;-60
2021/03/11 11:07:12;;;;;;;4.80;1.80;;;9.80;88.70;;;;;;5029589;28;20155;-60
2021/03/11 11:09:40;;;;;;;4.55;1.70;;;10.00;88.10;;;;;;5019634;28;20069;-60
2021/03/11 11:12:13;;;;;;;3.75;1.50;;;10.10;88.30;;;;;;5009835;28;20062;-60
2021/03/11 11:14:40;;;;;;;3.38;1.98;;;10.10;88.20;;;;;;5010747;28;20069;-59
2021/03/11 11:17:09;;;;;;;3.35;1.45;;;10.10;87.80;;;;;;5018671;28;20360;-60
2021/03/11 11:19:37;;;;;;;3.13;1.27;;;10.20;87.70;;;;;;5027677;28;20156;-60
2021/03/11 11:22:04;;;;;;;3.30;1.25;;;10.20;86.90;;;;;;5028673;28;20472;-61
2021/03/11 11:24:31;;;;;;;2.65;1.20;;;10.30;86.60;;;;;;5030042;28;20070;-61
2021/03/11 11:26:58;;;;;;;4.30;1.27;;;10.40;85.90;;;;;;5030014;28;20357;-60
2021/03/11 11:29:26;;;;;;;3.85;1.20;;;10.40;85.70;;;;;;5036979;28;20064;-60
2021/03/11 11:31:53;;;;;;;2.70;1.40;;;10.50;86.20;;;;;;5033922;28;20087;-60
2021/03/11 11:34:21;;;;;;;3.20;1.40;;;10.50;85.70;;;;;;5033632;28;20045;-59
2021/03/11 11:36:48;;;;;;;2.83;1.30;;;10.40;87.60;;;;;;5034576;28;20260;-60
2021/03/11 11:39:15;;;;;;;3.83;1.52;;;10.20;88.50;;;;;;5011578;28;20357;-60
2021/03/11 11:41:44;;;;;;;3.15;1.33;;;10.10;89.10;;;;;;5013370;28;20113;-60
2021/03/11 11:44:12;;;;;;;2.45;1.40;;;10.10;88.90;;;;;;5015731;28;20110;-60
2021/03/11 11:46:40;;;;;;;5.03;1.20;;;10.10;88.10;;;;;;5019494;28;20371;-60
2021/03/11 11:49:07;;;;;;;2.92;0.90;;;10.20;87.30;;;;;;5015631;28;20353;-60
2021/03/11 11:51:35;;;;;;;4.32;1.42;;;10.20;87.70;;;;;;5009893;28;20065;-60
2021/03/11 11:54:04;;;;;;;2.13;1.08;;;10.40;87.10;;;;;;5013513;28;20121;-60
2021/03/11 11:56:31;;;;;;;2.85;1.23;;;10.40;86.90;;;;;;5019729;28;20341;-60
2021/03/11 11:58:58;;;;;;;2.05;1.00;;;10.40;86.60;;;;;;5018009;28;20069;-59
2021/03/11 12:01:26;;;;;;;2.95;1.10;;;10.40;87.20;;;;;;5020644;28;20051;-60
2021/03/11 12:03:53;;;;;;;1.98;0.82;;;10.60;86.10;;;;;;5019600;28;20061;-60
2021/03/11 12:06:20;;;;;;;2.70;1.00;;;10.50;87.70;;;;;;5022383;28;20073;-60
2021/03/11 12:08:48;;;;;;;2.47;1.00;;;10.50;87.20;;;;;;5020369;28;20046;-61
2021/03/11 12:11:15;;;;;;;1.83;0.68;;;10.60;87.10;;;;;;5015135;28;20516;-61
2021/03/11 12:13:42;;;;;;;3.50;1.05;;;10.70;87.40;;;;;;5014991;28;20089;-61
2021/03/11 12:16:09;;;;;;;3.92;1.02;;;10.80;86.80;;;;;;5018575;28;20084;-60
2021/03/11 12:18:36;;;;;;;1.58;0.73;;;10.90;87.30;;;;;;5018450;28;20290;-61
2021/03/11 12:21:03;;;;;;;1.20;0.70;;;11.10;86.10;;;;;;5015431;28;20456;-61
2021/03/11 12:23:30;;;;;;;1.85;0.82;;;11.30;86.30;;;;;;5012019;28;20058;-60
2021/03/11 12:25:59;;;;;;;2.00;0.95;;;11.40;86.50;;;;;;5011066;28;20213;-60
2021/03/11 12:28:26;;;;;;;2.10;1.00;;;11.40;86.70;;;;;;5014242;28;20054;-60
2021/03/11 12:30:53;;;;;;;2.85;0.93;;;11.10;87.60;;;;;;5014534;28;20073;-60
2021/03/11 12:33:20;;;;;;;3.03;1.40;;;11.10;88.50;;;;;;5015363;28;20100;-61
2021/03/11 12:35:47;;;;;;;2.13;1.13;;;10.80;89.30;;;;;;5030075;28;20069;-60
2021/03/11 12:38:14;;;;;;;1.60;0.73;;;10.60;90.70;;;;;;5034413;28;20565;-60
2021/03/11 12:40:42;;;;;;;2.15;1.10;;;10.60;91.30;;;;;;5035551;28;20083;-59
2021/03/11 12:43:10;;;;;;;2.42;1.20;;;10.50;91.20;;;;;;5036930;28;20053;-59
2021/03/11 12:45:37;;;;;;;3.08;1.25;;;10.50;91.40;;;;;;5039239;28;20076;-60
2021/03/11 12:48:05;;;;;;;2.85;1.15;;;10.40;91.00;;;;;;5035175;28;20213;-60
2021/03/11 12:50:32;;;;;;;2.30;1.15;;;10.70;89.70;;;;;;5032325;28;20049;-61
2021/03/11 12:52:59;;;;;;;2.65;1.40;;;11.10;88.60;;;;;;5033798;28;20045;-61
2021/03/11 12:55:26;;;;;;;1.73;0.93;;;11.20;87.20;;;;;;5032957;28;20071;-61
2021/03/11 12:57:53;;;;;;;3.60;1.63;;;11.80;85.90;;;;;;5029734;28;20056;-61
2021/03/11 13:00:25;;;;;;;2.60;1.13;;;11.80;85.80;;;;;;5034354;28;20352;-61
2021/03/11 13:02:52;;;;;;;5.25;1.30;;;11.90;85.10;;;;;;5035480;28;20111;-61
2021/03/11 13:05:19;;;;;;;2.53;1.02;;;13.50;78.80;;;;;;5038057;28;20056;-60
2021/03/11 13:07:45;;;;;;;3.00;0.90;;;13.60;76.90;;;;;;5035878;28;20056;-60
2021/03/11 13:10:14;;;;;;;2.15;1.05;;;15.00;72.70;;;;;;5036323;28;20092;-60